Time;durP1;ratioP1;P1;durP2;ratioP2;P2;SDS_P1;SDS_P2;PMS_P1;PMS_P2;Temp;Humidity;BMP_temperature;BMP_pressure;BME280_temperature;BME280_humidity;BME280_pressure;Samples;Min_cycle;Max_cycle;Signal;HPM_P1;HPM_P2
2021/11/14 00:00:59;;;;;;;3.45;2.10;;;;;;;17.36;67.51;101845.19;4762382;30;20035;-79
2021/11/14 00:03:25;;;;;;;3.13;1.88;;;;;;;17.35;68.20;101844.31;4776366;30;20027;-79
2021/11/14 00:05:51;;;;;;;4.65;1.70;;;;;;;17.37;67.55;101844.31;4763598;30;20031;-80
2021/11/14 00:08:17;;;;;;;4.35;1.73;;;;;;;17.36;67.62;101843.47;4759647;30;20035;-80
2021/11/14 00:10:47;;;;;;;3.70;1.90;;;;;;;17.36;67.63;101845.19;4775501;30;20080;-80
2021/11/14 00:13:13;;;;;;;3.05;1.75;;;;;;;17.37;67.63;101846.94;4773130;30;20496;-79
2021/11/14 00:15:39;;;;;;;2.42;1.92;;;;;;;17.37;67.55;101854.72;4758290;30;20040;-79
2021/11/14 00:18:05;;;;;;;2.65;1.60;;;;;;;17.37;67.55;101853.00;4789474;30;20027;-79
2021/11/14 00:20:31;;;;;;;2.65;1.80;;;;;;;17.37;67.62;101857.34;4758011;29;20550;-79
2021/11/14 00:22:57;;;;;;;2.58;1.90;;;;;;;17.38;67.48;101859.09;4769356;29;20055;-79
2021/11/14 00:25:23;;;;;;;2.95;1.58;;;;;;;17.37;67.23;101855.59;4760958;29;20093;-79
2021/11/14 00:27:50;;;;;;;3.75;1.88;;;;;;;17.38;67.27;101864.28;4790959;29;20026;-79
2021/11/14 00:30:16;;;;;;;2.58;1.70;;;;;;;17.37;67.10;101863.41;4796974;29;20031;-80
2021/11/14 00:32:42;;;;;;;4.25;1.67;;;;;;;17.39;67.22;101866.88;4797620;29;20122;-79
2021/11/14 00:35:09;;;;;;;2.78;1.52;;;;;;;17.37;67.67;101867.75;4792559;29;20113;-80
2021/11/14 00:37:36;;;;;;;2.88;1.70;;;;;;;17.38;67.48;101869.50;4800005;29;20042;-80
2021/11/14 00:40:12;;;;;;;2.30;1.65;;;;;;;17.37;67.13;101871.19;4795417;29;20197;-79
2021/11/14 00:42:38;;;;;;;2.53;1.58;;;;;;;17.37;67.65;101879.00;4811257;29;20046;-80
2021/11/14 00:45:05;;;;;;;3.22;1.80;;;;;;;17.36;67.14;101879.88;4780139;29;20417;-79
2021/11/14 00:47:31;;;;;;;3.63;1.63;;;;;;;17.38;67.77;101879.91;4789786;29;20134;-80
2021/11/14 00:49:56;;;;;;;2.78;1.60;;;;;;;17.38;67.19;101872.97;4789909;29;20031;-79
2021/11/14 00:52:22;;;;;;;2.72;1.85;;;;;;;17.37;67.22;101881.63;4804843;29;20099;-80
2021/11/14 00:54:47;;;;;;;2.90;1.52;;;;;;;17.37;67.33;101888.56;4798662;29;20023;-80
2021/11/14 00:57:13;;;;;;;2.80;1.95;;;;;;;17.36;67.18;101885.09;4786248;29;20051;-79
2021/11/14 00:59:38;;;;;;;3.13;1.70;;;;;;;17.36;67.09;101882.50;4805882;29;20046;-79
2021/11/14 01:02:04;;;;;;;2.75;1.77;;;;;;;17.37;66.98;101891.16;4789794;29;20035;-79
2021/11/14 01:04:29;;;;;;;3.78;1.70;;;;;;;17.38;67.31;101892.91;4773935;29;20034;-78
2021/11/14 01:06:54;;;;;;;2.65;1.60;;;;;;;17.36;66.99;101890.28;4807419;29;20030;-79
2021/11/14 01:09:20;;;;;;;3.05;1.83;;;;;;;17.36;67.55;101895.50;4791182;29;20077;-80
2021/11/14 01:11:46;;;;;;;1.95;1.60;;;;;;;17.36;67.14;101895.50;4790913;29;20083;-80
2021/11/14 01:14:12;;;;;;;2.22;1.48;;;;;;;17.37;67.14;101896.34;4805133;29;20461;-80
2021/11/14 01:16:37;;;;;;;3.10;1.70;;;;;;;17.35;67.37;101898.06;4773353;29;20069;-80
2021/11/14 01:19:03;;;;;;;3.55;1.75;;;;;;;17.37;67.09;101910.22;4773434;29;20492;-80
2021/11/14 01:21:29;;;;;;;3.22;1.40;;;;;;;17.36;67.06;101911.09;4801654;29;20480;-80
2021/11/14 01:23:58;;;;;;;2.15;1.60;;;;;;;17.38;66.91;101911.13;4799113;29;20065;-79
2021/11/14 01:26:23;;;;;;;3.17;1.60;;;;;;;17.38;67.11;101917.19;4784207;29;20117;-79
2021/11/14 01:28:49;;;;;;;2.97;1.70;;;;;;;17.37;67.22;101920.63;4766819;29;20042;-79
2021/11/14 01:31:14;;;;;;;2.65;1.67;;;;;;;17.37;66.82;101923.25;4782061;29;20125;-79
2021/11/14 01:33:41;;;;;;;2.40;1.40;;;;;;;17.38;66.74;101924.13;4767299;29;20400;-79
2021/11/14 01:36:06;;;;;;;2.72;1.50;;;;;;;17.38;66.83;101924.13;4796983;29;20448;-79
2021/11/14 01:38:32;;;;;;;2.38;1.70;;;;;;;17.39;66.91;101931.06;4766711;29;20121;-79
2021/11/14 01:41:01;;;;;;;2.10;1.55;;;;;;;17.37;67.58;101928.44;4782430;29;20064;-80
2021/11/14 01:43:32;;;;;;;2.72;1.60;;;;;;;17.37;67.21;101933.66;4813262;29;20065;-80
2021/11/14 01:45:58;;;;;;;2.42;1.60;;;;;;;17.38;66.80;101927.59;4813948;29;20027;-79
2021/11/14 01:48:23;;;;;;;3.10;1.50;;;;;;;17.38;67.16;101930.22;4781540;29;20087;-79
2021/11/14 01:50:50;;;;;;;2.53;1.60;;;;;;;17.38;66.95;101937.16;4781777;29;20041;-79
2021/11/14 01:53:17;;;;;;;2.25;1.33;;;;;;;17.39;67.00;101942.34;4781857;29;20035;-80
2021/11/14 01:55:44;;;;;;;2.15;1.40;;;;;;;17.39;66.84;101936.28;4796960;29;20057;-79
2021/11/14 01:58:16;;;;;;;1.83;1.40;;;;;;;17.38;67.38;101939.75;4781416;29;20041;-79
2021/11/14 02:00:54;;;;;;;3.40;1.60;;;;;;;17.38;66.75;101939.75;4796448;29;20027;-79
2021/11/14 02:03:21;;;;;;;2.17;1.48;;;;;;;17.38;66.82;101939.75;4812193;29;20105;-79
2021/11/14 02:05:47;;;;;;;3.78;1.80;;;;;;;17.38;66.51;101945.81;4810949;29;20030;-79
2021/11/14 02:08:14;;;;;;;2.15;1.50;;;;;;;17.40;66.65;101948.44;4795460;29;20041;-79
2021/11/14 02:10:42;;;;;;;2.30;1.50;;;;;;;17.40;66.65;101953.66;4765897;29;20079;-79
2021/11/14 02:13:08;;;;;;;2.45;1.60;;;;;;;17.40;66.47;101954.50;4796017;29;20027;-79
2021/11/14 02:15:34;;;;;;;2.83;1.48;;;;;;;17.39;66.47;101952.75;4795500;29;20042;-78
2021/11/14 02:18:00;;;;;;;2.28;1.60;;;;;;;17.40;66.83;101959.72;4795239;29;20019;-79
2021/11/14 02:20:26;;;;;;;1.95;1.48;;;;;;;17.39;66.54;101963.16;4795256;29;21434;-79
2021/11/14 02:22:52;;;;;;;2.25;1.40;;;;;;;17.38;66.48;101964.03;4802727;29;20134;-79
2021/11/14 02:25:20;;;;;;;2.45;1.55;;;;;;;17.39;66.80;101970.09;4810030;29;20069;-79
2021/11/14 02:27:47;;;;;;;2.10;1.35;;;;;;;17.37;66.82;101966.59;4810111;29;20472;-79
2021/11/14 02:30:16;;;;;;;2.90;1.65;;;;;;;17.39;66.41;101968.38;4809934;29;20041;-79
2021/11/14 02:32:41;;;;;;;2.45;1.50;;;;;;;17.38;66.40;101982.25;4780617;29;20034;-79
2021/11/14 02:35:08;;;;;;;3.35;1.70;;;;;;;17.40;66.54;101979.66;4780477;29;20080;-79
2021/11/14 02:37:35;;;;;;;2.72;1.40;;;;;;;17.39;66.87;101983.09;4795070;29;20034;-79
2021/11/14 02:40:02;;;;;;;2.65;1.52;;;;;;;17.37;66.60;101980.47;4795078;29;20027;-79
2021/11/14 02:42:28;;;;;;;2.75;1.63;;;;;;;17.38;66.90;101982.25;4809676;29;20031;-79
2021/11/14 02:44:53;;;;;;;2.22;1.42;;;;;;;17.36;66.62;101978.75;4809506;29;20070;-79
2021/11/14 02:47:19;;;;;;;2.33;1.40;;;;;;;17.38;66.74;101986.59;4780001;29;20035;-79
2021/11/14 02:49:45;;;;;;;2.22;1.33;;;;;;;17.40;66.41;101993.53;4763846;29;20408;-79
2021/11/14 02:52:11;;;;;;;3.13;1.50;;;;;;;17.41;66.67;101991.81;4779515;29;20038;-79
2021/11/14 02:54:37;;;;;;;3.08;1.48;;;;;;;17.39;66.25;101999.59;4796134;29;20035;-79
2021/11/14 02:57:03;;;;;;;2.53;1.40;;;;;;;17.39;66.51;101996.13;4777057;29;20035;-79
2021/11/14 02:59:28;;;;;;;1.90;1.48;;;;;;;17.39;66.56;101998.72;4761036;29;20117;-79
2021/11/14 03:01:55;;;;;;;1.70;1.10;;;;;;;17.39;66.54;102003.94;4776507;29;20395;-80
2021/11/14 03:04:26;;;;;;;2.22;1.38;;;;;;;17.39;66.17;102002.19;4807519;29;20095;-80
2021/11/14 03:06:53;;;;;;;3.20;1.50;;;;;;;17.42;66.06;102006.53;4807313;29;20031;-79
2021/11/14 03:09:23;;;;;;;2.20;1.60;;;;;;;17.40;66.30;102010.91;4776106;29;20038;-79
2021/11/14 03:11:49;;;;;;;3.42;1.70;;;;;;;17.39;66.61;101996.97;4806993;29;20425;-80
2021/11/14 03:14:15;;;;;;;3.05;1.70;;;;;;;17.41;66.04;102003.06;4809670;29;20042;-79
2021/11/14 03:16:42;;;;;;;2.47;1.50;;;;;;;17.40;66.31;102013.50;4809618;29;20035;-80
2021/11/14 03:19:07;;;;;;;2.42;1.65;;;;;;;17.43;66.17;102013.50;4781215;29;20064;-79
2021/11/14 03:21:33;;;;;;;2.00;1.58;;;;;;;17.42;66.19;102010.03;4793840;29;20038;-80
2021/11/14 03:23:59;;;;;;;2.40;1.55;;;;;;;17.41;65.91;102016.09;4761356;30;20035;-80
2021/11/14 03:26:25;;;;;;;2.78;1.75;;;;;;;17.40;66.52;102014.34;4760996;30;20063;-80
2021/11/14 03:28:51;;;;;;;1.98;1.48;;;;;;;17.41;66.22;102025.63;4760759;30;20401;-79
2021/11/14 03:31:16;;;;;;;2.83;1.65;;;;;;;17.40;66.04;102019.56;4791272;30;20039;-79
2021/11/14 03:33:43;;;;;;;2.35;1.55;;;;;;;17.42;66.23;102017.84;4774526;30;20031;-79
2021/11/14 03:36:12;;;;;;;3.53;1.50;;;;;;;17.43;66.02;102027.38;4791856;30;20485;-80
2021/11/14 03:38:42;;;;;;;2.83;1.60;;;;;;;17.42;65.86;102024.75;4776067;30;20052;-79
2021/11/14 03:41:10;;;;;;;3.17;1.42;;;;;;;17.42;66.21;102023.06;4775575;30;20481;-79
2021/11/14 03:43:37;;;;;;;2.33;1.60;;;;;;;17.43;65.93;102027.38;4775790;30;20027;-79
2021/11/14 03:46:04;;;;;;;2.83;1.52;;;;;;;17.43;65.87;102029.13;4775918;30;20122;-78
2021/11/14 03:48:30;;;;;;;2.50;1.80;;;;;;;17.42;66.02;102033.47;4775413;30;20042;-79
2021/11/14 03:50:55;;;;;;;2.28;1.85;;;;;;;17.44;65.96;102030.84;4760457;29;20028;-80
2021/11/14 03:53:22;;;;;;;2.67;1.80;;;;;;;17.44;66.04;102038.66;4775756;30;20553;-79
2021/11/14 03:55:49;;;;;;;2.45;1.70;;;;;;;17.43;66.00;102037.78;4791853;29;20091;-79
2021/11/14 03:58:14;;;;;;;2.97;1.80;;;;;;;17.45;65.96;102041.28;4746290;30;20100;-80
2021/11/14 04:00:47;;;;;;;2.80;1.60;;;;;;;17.40;65.99;102045.59;4791364;29;20500;-80
2021/11/14 04:03:14;;;;;;;2.45;1.70;;;;;;;17.42;65.97;102043.88;4775005;29;20037;-80
2021/11/14 04:05:42;;;;;;;2.97;1.70;;;;;;;17.43;65.79;102039.53;4746379;30;20443;-80
2021/11/14 04:08:11;;;;;;;2.97;1.90;;;;;;;17.44;65.46;102044.75;4760579;30;20035;-80
2021/11/14 04:10:37;;;;;;;3.15;1.80;;;;;;;17.44;65.84;102043.88;4792679;29;20378;-80
2021/11/14 04:13:03;;;;;;;3.35;1.90;;;;;;;17.43;66.22;102048.22;4764467;30;20035;-80
2021/11/14 04:15:28;;;;;;;2.67;1.98;;;;;;;17.41;65.98;102055.13;4762870;30;20130;-80
2021/11/14 04:17:57;;;;;;;3.10;1.88;;;;;;;17.46;65.88;102057.78;4778966;30;20511;-80
2021/11/14 04:20:25;;;;;;;2.53;1.70;;;;;;;17.45;65.75;102056.91;4780107;30;20051;-80
2021/11/14 04:22:51;;;;;;;2.38;1.85;;;;;;;17.44;65.89;102068.19;4774515;29;20062;-80
2021/11/14 04:25:17;;;;;;;3.25;2.00;;;;;;;17.43;65.80;102075.97;4782369;29;20061;-80
2021/11/14 04:27:42;;;;;;;2.13;1.67;;;;;;;17.43;65.85;102081.16;4781297;29;20504;-80
2021/11/14 04:30:09;;;;;;;3.10;1.95;;;;;;;17.43;65.92;102084.63;4796156;29;20046;-79
2021/11/14 04:32:34;;;;;;;3.05;1.88;;;;;;;17.45;65.70;102095.94;4781617;29;20050;-79
2021/11/14 04:35:00;;;;;;;2.53;1.98;;;;;;;17.47;65.46;102090.75;4781651;29;20031;-79
2021/11/14 04:37:32;;;;;;;3.45;2.17;;;;;;;17.45;65.93;102098.53;4812561;29;20046;-80
2021/11/14 04:39:57;;;;;;;3.03;2.05;;;;;;;17.44;65.63;102095.91;4781114;29;20031;-79
2021/11/14 04:42:22;;;;;;;2.40;1.80;;;;;;;17.45;66.00;102105.47;4812204;29;20072;-79
2021/11/14 04:44:48;;;;;;;2.63;1.90;;;;;;;17.43;65.54;102107.19;4766500;29;20054;-79
2021/11/14 04:47:14;;;;;;;3.45;2.22;;;;;;;17.42;66.26;102105.44;4781052;29;20035;-80
2021/11/14 04:49:40;;;;;;;3.63;2.45;;;;;;;17.43;65.90;102113.25;4780217;29;20031;-80
2021/11/14 04:52:06;;;;;;;2.50;1.98;;;;;;;17.41;65.82;102112.38;4796107;29;20042;-80
2021/11/14 04:54:31;;;;;;;3.05;2.30;;;;;;;17.43;65.89;102112.41;4795376;29;20103;-80
2021/11/14 04:56:57;;;;;;;3.10;2.22;;;;;;;17.45;65.99;102115.88;4780245;29;20068;-80
2021/11/14 04:59:23;;;;;;;3.28;2.15;;;;;;;17.44;65.79;102112.41;4794759;29;20083;-80
2021/11/14 05:01:48;;;;;;;2.70;2.00;;;;;;;17.44;65.61;102119.34;4780676;29;20129;-79
2021/11/14 05:04:15;;;;;;;2.80;1.85;;;;;;;17.44;65.77;102122.84;4766026;29;20031;-79
2021/11/14 05:06:40;;;;;;;2.80;2.10;;;;;;;17.41;65.88;102125.38;4811887;29;20023;-80
2021/11/14 05:09:05;;;;;;;2.30;1.73;;;;;;;17.45;65.45;102136.72;4780791;29;20114;-80
2021/11/14 05:11:31;;;;;;;2.80;1.95;;;;;;;17.41;65.71;102133.19;4765714;29;20039;-79
2021/11/14 05:13:56;;;;;;;2.30;1.80;;;;;;;17.41;65.63;102135.78;4765852;29;20035;-79
2021/11/14 05:16:22;;;;;;;3.40;2.25;;;;;;;17.42;65.61;102144.47;4811502;29;20041;-79
2021/11/14 05:18:47;;;;;;;5.65;2.10;;;;;;;17.41;65.90;102147.94;4780612;29;20125;-79
2021/11/14 05:21:12;;;;;;;3.08;1.95;;;;;;;17.43;65.44;102149.69;4795177;29;20037;-79
2021/11/14 05:23:38;;;;;;;2.65;2.10;;;;;;;17.41;65.82;102150.53;4807944;29;20134;-80
2021/11/14 05:26:04;;;;;;;2.97;1.90;;;;;;;17.39;65.59;102153.13;4811643;29;20043;-80
2021/11/14 05:28:30;;;;;;;2.63;2.15;;;;;;;17.39;66.04;102149.63;4765544;29;20043;-80
2021/11/14 05:30:55;;;;;;;2.85;2.00;;;;;;;17.38;65.45;102148.78;4811494;29;20113;-80
2021/11/14 05:33:20;;;;;;;3.28;2.05;;;;;;;17.40;65.60;102154.00;4765556;29;20477;-80
2021/11/14 05:35:46;;;;;;;2.20;1.98;;;;;;;17.39;65.36;102166.13;4810420;29;20041;-80
2021/11/14 05:38:12;;;;;;;2.72;1.90;;;;;;;17.42;65.13;102166.19;4810641;29;20052;-80
2021/11/14 05:40:37;;;;;;;3.33;2.10;;;;;;;17.44;65.28;102176.59;4780284;29;20138;-79
2021/11/14 05:43:03;;;;;;;3.30;2.20;;;;;;;17.43;65.13;102167.03;4780167;29;20038;-80
2021/11/14 05:45:28;;;;;;;2.88;1.98;;;;;;;17.41;65.60;102181.75;4810959;29;20023;-80
2021/11/14 05:47:54;;;;;;;2.25;1.70;;;;;;;17.39;65.59;102181.72;4777460;29;20094;-79
2021/11/14 05:50:20;;;;;;;3.42;2.45;;;;;;;17.41;65.31;102182.63;4807031;29;20027;-79
2021/11/14 05:52:46;;;;;;;2.30;1.98;;;;;;;17.41;65.36;102184.38;4807005;29;20023;-79
2021/11/14 05:55:11;;;;;;;3.00;2.13;;;;;;;17.40;65.18;102188.69;4806900;29;20023;-79
2021/11/14 05:57:50;;;;;;;5.00;2.28;;;;;;;17.38;65.51;102194.75;4791838;29;20114;-79
2021/11/14 06:00:22;;;;;;;2.80;2.17;;;;;;;17.39;65.12;102196.47;4806747;29;20029;-79
2021/11/14 06:03:00;;;;;;;2.50;2.23;;;;;;;17.39;65.46;102201.69;4806642;29;20057;-79
2021/11/14 06:05:26;;;;;;;3.63;2.60;;;;;;;17.36;65.52;102199.91;4806570;29;20045;-79
2021/11/14 06:07:51;;;;;;;3.30;2.28;;;;;;;17.38;65.42;102210.38;4762168;29;20035;-79
2021/11/14 06:10:17;;;;;;;3.75;2.55;;;;;;;17.38;65.41;102203.41;4776701;29;20031;-78
2021/11/14 06:12:45;;;;;;;3.25;2.25;;;;;;;17.40;65.02;102208.66;4762039;29;20034;-79
2021/11/14 06:15:13;;;;;;;4.22;2.40;;;;;;;17.41;65.17;102213.84;4806280;29;20027;-79
2021/11/14 06:17:38;;;;;;;3.45;2.45;;;;;;;17.40;65.25;102211.25;4806237;29;20076;-79
2021/11/14 06:20:05;;;;;;;3.83;2.40;;;;;;;17.37;65.07;102217.28;4761604;29;20023;-78
2021/11/14 06:22:31;;;;;;;3.00;2.63;;;;;;;17.36;65.40;102218.13;4807201;29;20046;-79
2021/11/14 06:24:58;;;;;;;3.75;2.72;;;;;;;17.35;65.56;102218.97;4793282;29;20055;-79
2021/11/14 06:27:24;;;;;;;4.22;3.00;;;;;;;17.35;65.31;102224.19;4810231;29;20056;-78
2021/11/14 06:29:49;;;;;;;3.20;2.75;;;;;;;17.37;65.43;102221.59;4763994;29;20529;-78
2021/11/14 06:32:14;;;;;;;2.90;2.60;;;;;;;17.37;65.15;102227.69;4764719;29;20134;-79
2021/11/14 06:34:40;;;;;;;4.03;3.00;;;;;;;17.37;65.33;102229.41;4778609;29;20066;-78
2021/11/14 06:37:06;;;;;;;3.20;2.90;;;;;;;17.36;65.39;102231.16;4779113;29;20107;-79
2021/11/14 06:39:31;;;;;;;3.88;3.08;;;;;;;17.34;65.47;102230.25;4808686;29;20037;-79
2021/11/14 06:41:57;;;;;;;3.15;2.70;;;;;;;17.39;64.76;102243.31;4778798;29;20118;-78
2021/11/14 06:44:22;;;;;;;4.43;3.00;;;;;;;17.38;65.27;102247.66;4763842;29;20049;-78
2021/11/14 06:46:48;;;;;;;3.33;3.00;;;;;;;17.37;65.14;102258.03;4793893;29;20114;-79
2021/11/14 06:49:13;;;;;;;3.25;2.80;;;;;;;17.36;65.25;102259.78;4764190;29;20031;-78
2021/11/14 06:51:39;;;;;;;3.55;2.95;;;;;;;17.37;65.30;102263.25;4782886;29;20100;-78
2021/11/14 06:54:04;;;;;;;4.35;3.20;;;;;;;17.37;65.04;102264.09;4808659;29;20052;-78
2021/11/14 06:56:29;;;;;;;3.33;3.03;;;;;;;17.33;65.07;102271.84;4763597;29;20035;-79
2021/11/14 06:58:55;;;;;;;4.22;2.92;;;;;;;17.37;64.89;102274.50;4778899;29;20035;-79
2021/11/14 07:01:20;;;;;;;4.15;3.40;;;;;;;17.35;64.90;102281.41;4793331;29;20118;-79
2021/11/14 07:03:46;;;;;;;4.80;3.60;;;;;;;17.38;65.28;102283.22;4793667;29;20045;-80
2021/11/14 07:06:11;;;;;;;4.45;3.42;;;;;;;17.36;65.13;102288.41;4762950;29;20034;-79
2021/11/14 07:08:36;;;;;;;3.80;3.10;;;;;;;17.36;64.65;102296.19;4807676;29;20477;-78
2021/11/14 07:11:02;;;;;;;3.78;3.33;;;;;;;17.35;64.98;102301.38;4778956;29;20046;-79
2021/11/14 07:13:27;;;;;;;4.45;3.40;;;;;;;17.32;65.22;102294.41;4778793;29;20496;-79
2021/11/14 07:15:53;;;;;;;4.03;3.20;;;;;;;17.36;65.04;102304.00;4793622;29;20114;-78
2021/11/14 07:18:18;;;;;;;4.25;3.33;;;;;;;17.36;64.67;102305.75;4778823;29;20037;-79
2021/11/14 07:20:44;;;;;;;3.78;3.35;;;;;;;17.35;64.68;102310.03;4794332;29;20496;-79
2021/11/14 07:23:09;;;;;;;3.83;3.08;;;;;;;17.37;64.85;102320.50;4767259;29;20062;-79
2021/11/14 07:25:35;;;;;;;5.43;3.50;;;;;;;17.40;64.53;102326.63;4761062;29;20043;-79
2021/11/14 07:28:02;;;;;;;4.28;3.40;;;;;;;17.40;64.72;102329.22;4775727;30;20466;-80
2021/11/14 07:30:27;;;;;;;4.72;3.70;;;;;;;17.40;64.52;102337.03;4778535;30;20520;-79
2021/11/14 07:32:54;;;;;;;15.73;7.30;;;;;;;17.41;65.95;102343.97;4763222;30;20039;-78
2021/11/14 07:35:23;;;;;;;11.45;6.85;;;;;;;17.45;64.80;102343.16;4782109;30;20015;-78
2021/11/14 07:37:49;;;;;;;20.67;7.03;;;;;;;17.50;64.98;102351.03;4774545;30;20122;-78
2021/11/14 07:40:17;;;;;;;17.65;6.70;;;;;;;17.51;64.93;102351.91;4775395;30;20088;-77
2021/11/14 07:42:46;;;;;;;16.50;6.55;;;;;;;17.51;64.85;102354.50;4791344;30;20397;-77
2021/11/14 07:45:15;;;;;;;13.90;5.55;;;;;;;17.51;65.08;102351.91;4791185;29;20113;-78
2021/11/14 07:47:41;;;;;;;14.70;5.65;;;;;;;17.55;64.86;102358.91;4791665;29;20157;-77
2021/11/14 07:50:08;;;;;;;15.88;5.57;;;;;;;17.54;64.81;102357.19;4774236;30;20584;-77
2021/11/14 07:52:34;;;;;;;9.70;5.03;;;;;;;17.54;64.75;102358.06;4775238;30;20489;-78
2021/11/14 07:55:00;;;;;;;9.82;5.40;;;;;;;17.56;64.78;102361.56;4791369;30;20039;-77
2021/11/14 07:57:26;;;;;;;9.10;4.78;;;;;;;17.58;64.85;102366.78;4774485;30;20027;-77
2021/11/14 07:59:51;;;;;;;10.82;5.28;;;;;;;17.59;64.73;102376.34;4758830;30;20061;-77
2021/11/14 08:02:17;;;;;;;10.35;5.63;;;;;;;17.58;64.89;102372.00;4759546;30;20061;-78
2021/11/14 08:04:43;;;;;;;11.23;5.10;;;;;;;17.59;64.88;102368.53;4773590;29;20047;-77
2021/11/14 08:07:08;;;;;;;10.20;4.80;;;;;;;17.59;64.65;102374.59;4759317;29;20401;-77
2021/11/14 08:09:35;;;;;;;10.68;5.07;;;;;;;17.61;64.72;102369.44;4773551;30;20092;-77
2021/11/14 08:12:00;;;;;;;9.07;4.93;;;;;;;17.60;64.93;102371.16;4744249;30;20042;-77
2021/11/14 08:14:26;;;;;;;11.20;5.13;;;;;;;17.63;64.71;102371.19;4744830;30;20043;-77
2021/11/14 08:16:52;;;;;;;8.88;4.72;;;;;;;17.63;64.90;102378.13;4759451;30;20143;-78
2021/11/14 08:19:17;;;;;;;9.80;5.43;;;;;;;17.63;64.78;102378.13;4773802;30;20031;-81
2021/11/14 08:21:43;;;;;;;8.18;4.85;;;;;;;17.65;64.73;102379.91;4780457;29;20084;-81
2021/11/14 08:24:08;;;;;;;7.68;4.45;;;;;;;17.64;65.39;102379.91;4762055;30;20045;-81
2021/11/14 08:26:34;;;;;;;8.18;4.50;;;;;;;17.66;64.96;102388.63;4746116;30;20490;-80
2021/11/14 08:28:59;;;;;;;9.65;5.25;;;;;;;17.64;64.80;102383.38;4791830;29;20039;-81
2021/11/14 08:31:26;;;;;;;8.55;4.45;;;;;;;17.65;64.85;102386.84;4761386;30;20058;-81
2021/11/14 08:33:51;;;;;;;7.22;4.47;;;;;;;17.66;64.68;102383.41;4784582;30;20118;-81
2021/11/14 08:36:17;;;;;;;8.63;4.75;;;;;;;17.67;64.98;102385.13;4769030;29;20046;-85
2021/11/14 08:38:43;;;;;;;8.38;4.55;;;;;;;17.68;64.86;102402.50;4808137;30;20012;-85
2021/11/14 08:41:12;;;;;;;7.47;4.80;;;;;;;17.67;65.06;102395.56;4778524;30;20047;-83
2021/11/14 08:43:41;;;;;;;8.45;4.28;;;;;;;17.67;64.85;102400.75;4786561;30;20487;-82
2021/11/14 08:46:09;;;;;;;9.52;5.18;;;;;;;17.67;64.79;102401.63;4786075;30;20031;-84
2021/11/14 08:48:35;;;;;;;7.55;4.40;;;;;;;17.67;64.96;102403.38;4785689;30;20032;-83
2021/11/14 08:51:01;;;;;;;8.35;4.53;;;;;;;17.67;64.77;102400.75;4804796;30;20028;-82
2021/11/14 08:53:26;;;;;;;6.30;4.20;;;;;;;17.69;65.05;102402.53;4784418;30;20070;-82
2021/11/14 08:55:54;;;;;;;8.40;4.40;;;;;;;17.69;64.88;102402.53;4797491;30;20027;-82
2021/11/14 08:58:20;;;;;;;6.50;4.25;;;;;;;17.70;64.94;102411.22;4787538;30;20396;-83
2021/11/14 09:00:46;;;;;;;7.05;4.07;;;;;;;17.72;64.58;102409.50;4783476;30;20027;-83
2021/11/14 09:03:11;;;;;;;8.18;4.30;;;;;;;17.72;65.01;102413.84;4777112;30;20043;-83
2021/11/14 09:05:36;;;;;;;5.20;3.80;;;;;;;17.73;64.83;102413.88;4781939;30;20122;-80
2021/11/14 09:08:05;;;;;;;6.35;4.47;;;;;;;17.75;64.84;102421.72;4787333;30;20043;-82
2021/11/14 09:10:32;;;;;;;7.50;4.35;;;;;;;17.73;64.76;102419.09;4805588;30;20546;-81
2021/11/14 09:12:59;;;;;;;10.73;4.40;;;;;;;17.74;64.94;102427.75;4784525;30;20031;-81
2021/11/14 09:15:29;;;;;;;9.38;4.45;;;;;;;17.74;64.74;102430.38;4755819;30;20505;-81
2021/11/14 09:17:56;;;;;;;5.28;4.07;;;;;;;17.76;64.91;102433.88;4782489;30;20494;-81
2021/11/14 09:20:21;;;;;;;6.70;4.30;;;;;;;17.75;64.78;102430.41;4748669;30;20035;-81
2021/11/14 09:22:49;;;;;;;6.57;4.28;;;;;;;17.76;64.88;102434.75;4751741;30;20066;-81
2021/11/14 09:25:15;;;;;;;6.13;4.40;;;;;;;17.77;64.89;102436.50;4775902;30;20532;-81
2021/11/14 09:27:40;;;;;;;6.03;3.97;;;;;;;17.79;64.55;102436.50;4777057;30;20087;-81
2021/11/14 09:30:07;;;;;;;6.47;4.32;;;;;;;17.79;64.54;102444.31;4779671;30;20165;-81
2021/11/14 09:32:34;;;;;;;9.38;4.63;;;;;;;17.81;64.60;102455.63;4796866;30;20042;-82
2021/11/14 09:35:00;;;;;;;5.38;4.05;;;;;;;17.80;64.78;102453.91;4799743;30;20114;-82
2021/11/14 09:37:26;;;;;;;6.95;4.43;;;;;;;17.80;64.77;102453.91;4788881;30;20393;-81
2021/11/14 09:39:51;;;;;;;6.07;4.35;;;;;;;17.81;64.73;102464.34;4797409;30;20125;-81
2021/11/14 09:42:18;;;;;;;6.18;4.18;;;;;;;17.82;64.75;102468.72;4781391;30;20032;-81
2021/11/14 09:44:43;;;;;;;6.47;4.57;;;;;;;17.82;64.69;102481.75;4782501;30;20500;-81
2021/11/14 09:47:10;;;;;;;6.63;4.18;;;;;;;17.83;64.71;102477.41;4800685;29;20031;-81
2021/11/14 09:49:35;;;;;;;5.93;4.32;;;;;;;17.83;64.71;102486.13;4783999;30;20088;-82
2021/11/14 09:52:10;;;;;;;6.47;4.75;;;;;;;17.83;64.39;102483.50;4783771;30;20031;-81
2021/11/14 09:54:37;;;;;;;6.70;4.07;;;;;;;17.82;64.65;102497.38;4791010;30;20107;-82
2021/11/14 09:57:03;;;;;;;9.18;4.15;;;;;;;17.83;64.82;102496.53;4790369;30;20130;-82
2021/11/14 09:59:29;;;;;;;5.28;4.00;;;;;;;17.85;64.68;102496.53;4803767;29;20031;-82
2021/11/14 10:01:57;;;;;;;6.15;4.57;;;;;;;17.86;64.49;102500.91;4803998;29;20035;-82
2021/11/14 10:04:23;;;;;;;6.40;4.63;;;;;;;17.85;64.72;102507.81;4785291;30;20058;-80
2021/11/14 10:07:03;;;;;;;6.50;4.18;;;;;;;17.86;64.63;102506.13;4801541;30;20062;-82
2021/11/14 10:09:34;;;;;;;5.00;4.03;;;;;;;17.86;64.64;102504.38;4803572;29;20050;-81
2021/11/14 10:12:16;;;;;;;5.72;4.30;;;;;;;17.89;64.41;102503.56;4794441;29;20023;-79
2021/11/14 10:14:44;;;;;;;5.03;4.03;;;;;;;17.89;64.73;102504.41;4777981;30;20027;-78
2021/11/14 10:17:15;;;;;;;5.60;4.20;;;;;;;17.89;64.65;102506.16;4783020;30;20050;-78
2021/11/14 10:19:41;;;;;;;6.05;4.45;;;;;;;17.89;64.68;102508.75;4791692;29;20107;-82
2021/11/14 10:22:06;;;;;;;5.40;4.50;;;;;;;17.89;64.34;102513.97;4774948;30;20090;-79
2021/11/14 10:24:32;;;;;;;5.15;4.47;;;;;;;17.89;64.64;102511.38;4790887;29;20038;-77
2021/11/14 10:27:12;;;;;;;6.03;4.38;;;;;;;17.89;64.82;102517.44;4758960;30;20101;-77
2021/11/14 10:29:39;;;;;;;6.55;4.55;;;;;;;17.91;64.57;102514.00;4790083;29;20065;-77
2021/11/14 10:32:09;;;;;;;5.80;4.40;;;;;;;17.94;64.53;102521.84;4773776;30;20028;-77
2021/11/14 10:34:51;;;;;;;4.82;4.13;;;;;;;17.96;64.51;102527.97;4789719;30;20031;-76
2021/11/14 10:37:21;;;;;;;5.15;4.30;;;;;;;17.97;64.64;102525.38;4773668;30;20027;-77
2021/11/14 10:39:52;;;;;;;5.65;4.43;;;;;;;17.98;64.85;102521.06;4789906;30;20424;-76
2021/11/14 10:42:20;;;;;;;5.15;4.50;;;;;;;17.98;64.20;102529.72;4794150;29;20027;-77
2021/11/14 10:44:55;;;;;;;5.55;4.85;;;;;;;17.97;64.67;102524.53;4779914;30;20042;-83
2021/11/14 10:47:22;;;;;;;6.38;4.85;;;;;;;17.95;64.45;102531.44;4801337;29;20538;-80
2021/11/14 10:49:55;;;;;;;6.07;4.70;;;;;;;17.92;64.73;102534.88;4760970;30;20066;-76
2021/11/14 10:52:22;;;;;;;6.10;4.63;;;;;;;17.92;64.86;102544.38;4790367;30;20473;-76
2021/11/14 10:55:03;;;;;;;5.47;4.80;;;;;;;17.90;64.68;102541.78;4795004;30;20037;-82
2021/11/14 10:57:34;;;;;;;5.93;4.78;;;;;;;17.94;64.78;102545.28;4809299;30;20421;-84
2021/11/14 11:00:13;;;;;;;5.40;4.63;;;;;;;17.93;64.67;102543.56;4793877;30;20032;-83
2021/11/14 11:02:42;;;;;;;5.63;4.70;;;;;;;17.93;64.59;102548.75;4788283;30;20126;-77
2021/11/14 11:05:11;;;;;;;7.35;4.75;;;;;;;17.96;64.61;102547.06;4790363;29;20035;-77
2021/11/14 11:07:50;;;;;;;6.25;4.57;;;;;;;17.99;64.95;102549.72;4788446;29;20130;-77
2021/11/14 11:10:16;;;;;;;6.88;4.88;;;;;;;18.02;64.89;102548.91;4788351;29;20482;-77
2021/11/14 11:12:42;;;;;;;5.22;4.72;;;;;;;18.04;64.86;102540.25;4772914;29;20051;-78
2021/11/14 11:15:10;;;;;;;7.25;5.68;;;;;;;18.05;64.84;102544.63;4773146;30;20027;-77
2021/11/14 11:17:51;;;;;;;5.45;4.75;;;;;;;18.08;65.08;102547.25;4773692;30;20041;-78
2021/11/14 11:20:27;;;;;;;5.07;4.57;;;;;;;18.09;64.92;102540.31;4789328;30;20055;-78
2021/11/14 11:22:58;;;;;;;7.28;5.40;;;;;;;18.11;64.82;102541.22;4798367;29;20412;-77